sensor_id;sensor_type;location;lat;lon;timestamp;pressure;altitude;pressure_sealevel;temperature;humidity
55456;BME280;63021;52.836;6.376;2022-10-17T00:01:38;101813.06;;;12.75;74.59
55456;BME280;63021;52.836;6.376;2022-10-17T00:04:03;101820.81;;;12.78;74.61
55456;BME280;63021;52.836;6.376;2022-10-17T00:06:29;101820.81;;;12.78;74.48
55456;BME280;63021;52.836;6.376;2022-10-17T00:08:54;101822.22;;;12.82;74.78
55456;BME280;63021;52.836;6.376;2022-10-17T00:11:21;101832.63;;;12.85;74.66
55456;BME280;63021;52.836;6.376;2022-10-17T00:13:48;101831.50;;;12.88;74.74
55456;BME280;63021;52.836;6.376;2022-10-17T00:16:21;101827.72;;;12.90;74.69
55456;BME280;63021;52.836;6.376;2022-10-17T00:18:47;101818.72;;;12.91;74.92
55456;BME280;63021;52.836;6.376;2022-10-17T00:21:17;101815.78;;;12.94;75.09
55456;BME280;63021;52.836;6.376;2022-10-17T00:23:44;101811.13;;;12.96;74.84
55456;BME280;63021;52.836;6.376;2022-10-17T00:26:09;101802.13;;;12.97;75.06
55456;BME280;63021;52.836;6.376;2022-10-17T00:28:34;101805.38;;;13.01;75.11
55456;BME280;63021;52.836;6.376;2022-10-17T00:31:02;101807.88;;;13.03;75.64
55456;BME280;63021;52.836;6.376;2022-10-17T00:33:29;101804.25;;;13.04;75.28
55456;BME280;63021;52.836;6.376;2022-10-17T00:36:07;101812.81;;;13.07;75.12
55456;BME280;63021;52.836;6.376;2022-10-17T00:38:33;101810.88;;;13.09;74.97
55456;BME280;63021;52.836;6.376;2022-10-17T00:40:59;101798.47;;;13.08;75.32
55456;BME280;63021;52.836;6.376;2022-10-17T00:43:24;101800.84;;;13.11;75.55
55456;BME280;63021;52.836;6.376;2022-10-17T00:45:51;101804.25;;;13.13;75.18
55456;BME280;63021;52.836;6.376;2022-10-17T00:48:17;101800.56;;;13.14;75.05
55456;BME280;63021;52.836;6.376;2022-10-17T00:50:45;101803.97;;;13.16;75.41
55456;BME280;63021;52.836;6.376;2022-10-17T00:53:13;101807.34;;;13.18;75.33
55456;BME280;63021;52.836;6.376;2022-10-17T00:55:50;101789.34;;;13.21;74.95
55456;BME280;63021;52.836;6.376;2022-10-17T00:58:17;101786.53;;;13.22;75.57
55456;BME280;63021;52.836;6.376;2022-10-17T01:00:45;101780.06;;;13.25;75.67
55456;BME280;63021;52.836;6.376;2022-10-17T01:03:11;101775.41;;;13.27;75.86
55456;BME280;63021;52.836;6.376;2022-10-17T01:05:37;101779.63;;;13.29;75.59
55456;BME280;63021;52.836;6.376;2022-10-17T01:08:04;101773.00;;;13.33;76.22
55456;BME280;63021;52.836;6.376;2022-10-17T01:10:36;101776.13;;;13.39;75.86
55456;BME280;63021;52.836;6.376;2022-10-17T01:13:10;101759.78;;;13.42;76.03
55456;BME280;63021;52.836;6.376;2022-10-17T01:21:19;101764.56;;;13.48;76.31
55456;BME280;63021;52.836;6.376;2022-10-17T01:32:18;101758.25;;;13.49;75.84
55456;BME280;63021;52.836;6.376;2022-10-17T01:35:01;101757.38;;;13.48;75.59
55456;BME280;63021;52.836;6.376;2022-10-17T01:40:10;101762.59;;;13.50;75.92
55456;BME280;63021;52.836;6.376;2022-10-17T01:47:45;101744.97;;;13.47;75.60
55456;BME280;63021;52.836;6.376;2022-10-17T01:50:22;101739.53;;;13.49;75.84
55456;BME280;63021;52.836;6.376;2022-10-17T01:52:56;101739.53;;;13.49;75.72
55456;BME280;63021;52.836;6.376;2022-10-17T01:55:24;101740.34;;;13.49;76.04
55456;BME280;63021;52.836;6.376;2022-10-17T01:57:55;101730.94;;;13.45;75.74
55456;BME280;63021;52.836;6.376;2022-10-17T02:00:23;101724.75;;;13.45;75.81
55456;BME280;63021;52.836;6.376;2022-10-17T02:02:57;101718.53;;;13.44;75.67
55456;BME280;63021;52.836;6.376;2022-10-17T02:05:29;101723.88;;;13.44;75.71
55456;BME280;63021;52.836;6.376;2022-10-17T02:07:56;101709.69;;;13.44;75.58
55456;BME280;63021;52.836;6.376;2022-10-17T02:10:34;101710.50;;;13.44;75.86
55456;BME280;63021;52.836;6.376;2022-10-17T02:16:07;101700.81;;;13.43;75.86
55456;BME280;63021;52.836;6.376;2022-10-17T02:21:46;101698.41;;;13.40;75.83
55456;BME280;63021;52.836;6.376;2022-10-17T02:24:22;101693.34;;;13.37;75.91
55456;BME280;63021;52.836;6.376;2022-10-17T02:26:57;101695.88;;;13.39;76.08
55456;BME280;63021;52.836;6.376;2022-10-17T02:29:31;101702.25;;;13.38;76.14
55456;BME280;63021;52.836;6.376;2022-10-17T02:32:02;101688.88;;;13.38;75.94
55456;BME280;63021;52.836;6.376;2022-10-17T02:34:32;101694.22;;;13.38;76.09
55456;BME280;63021;52.836;6.376;2022-10-17T02:37:02;101685.31;;;13.37;76.18
55456;BME280;63021;52.836;6.376;2022-10-17T02:39:30;101687.03;;;13.38;75.86
55456;BME280;63021;52.836;6.376;2022-10-17T02:41:59;101679.84;;;13.39;76.22
55456;BME280;63021;52.836;6.376;2022-10-17T02:44:27;101681.69;;;13.38;76.15
55456;BME280;63021;52.836;6.376;2022-10-17T02:47:26;101675.19;;;13.41;76.25
55456;BME280;63021;52.836;6.376;2022-10-17T02:49:55;101678.84;;;13.40;76.59
55456;BME280;63021;52.836;6.376;2022-10-17T02:52:39;101671.66;;;13.40;76.14
55456;BME280;63021;52.836;6.376;2022-10-17T02:55:11;101656.63;;;13.39;76.28
55456;BME280;63021;52.836;6.376;2022-10-17T02:57:51;101645.94;;;13.39;76.60
55456;BME280;63021;52.836;6.376;2022-10-17T03:00:20;101650.25;;;13.40;76.82
55456;BME280;63021;52.836;6.376;2022-10-17T03:02:48;101638.72;;;13.40;77.20
55456;BME280;63021;52.836;6.376;2022-10-17T03:05:18;101630.72;;;13.40;76.82
55456;BME280;63021;52.836;6.376;2022-10-17T03:07:43;101629.59;;;13.42;76.80
55456;BME280;63021;52.836;6.376;2022-10-17T03:10:09;101623.38;;;13.42;77.12
55456;BME280;63021;52.836;6.376;2022-10-17T03:12:34;101631.41;;;13.42;77.19
55456;BME280;63021;52.836;6.376;2022-10-17T03:15:00;101636.63;;;13.43;77.24
55456;BME280;63021;52.836;6.376;2022-10-17T03:17:25;101626.91;;;13.42;76.87
55456;BME280;63021;52.836;6.376;2022-10-17T03:19:51;101636.63;;;13.43;77.28
55456;BME280;63021;52.836;6.376;2022-10-17T03:22:16;101632.09;;;13.44;77.81
55456;BME280;63021;52.836;6.376;2022-10-17T03:24:42;101630.13;;;13.46;77.99
55456;BME280;63021;52.836;6.376;2022-10-17T03:27:07;101635.47;;;13.46;78.16
55456;BME280;63021;52.836;6.376;2022-10-17T03:29:32;101638.13;;;13.46;77.78
55456;BME280;63021;52.836;6.376;2022-10-17T03:31:58;101639.84;;;13.47;77.92
55456;BME280;63021;52.836;6.376;2022-10-17T03:34:23;101642.50;;;13.47;77.77
55456;BME280;63021;52.836;6.376;2022-10-17T03:36:48;101646.88;;;13.48;78.22
55456;BME280;63021;52.836;6.376;2022-10-17T03:39:14;101651.25;;;13.49;77.86
55456;BME280;63021;52.836;6.376;2022-10-17T03:41:39;101647.56;;;13.50;78.23
55456;BME280;63021;52.836;6.376;2022-10-17T03:44:04;101655.59;;;13.50;77.93
55456;BME280;63021;52.836;6.376;2022-10-17T03:46:30;101636.03;;;13.49;78.18
55456;BME280;63021;52.836;6.376;2022-10-17T03:48:55;101646.59;;;13.51;77.68
55456;BME280;63021;52.836;6.376;2022-10-17T03:51:21;101648.44;;;13.50;78.44
55456;BME280;63021;52.836;6.376;2022-10-17T03:53:46;101642.06;;;13.51;78.43
55456;BME280;63021;52.836;6.376;2022-10-17T03:56:14;101644.59;;;13.53;78.05
55456;BME280;63021;52.836;6.376;2022-10-17T03:58:40;101643.59;;;13.54;78.30
55456;BME280;63021;52.836;6.376;2022-10-17T04:01:07;101645.31;;;13.55;78.23
55456;BME280;63021;52.836;6.376;2022-10-17T04:03:33;101642.47;;;13.57;78.39
55456;BME280;63021;52.836;6.376;2022-10-17T04:05:59;101644.16;;;13.58;78.38
55456;BME280;63021;52.836;6.376;2022-10-17T04:08:25;101649.22;;;13.61;78.58
55456;BME280;63021;52.836;6.376;2022-10-17T04:10:51;101645.69;;;13.60;78.43
55456;BME280;63021;52.836;6.376;2022-10-17T04:13:16;101643.72;;;13.62;78.20
55456;BME280;63021;52.836;6.376;2022-10-17T04:15:42;101635.69;;;13.62;78.37
55456;BME280;63021;52.836;6.376;2022-10-17T04:18:07;101643.56;;;13.64;78.89
55456;BME280;63021;52.836;6.376;2022-10-17T04:20:35;101637.09;;;13.66;78.42
55456;BME280;63021;52.836;6.376;2022-10-17T04:23:01;101641.44;;;13.67;78.39
55456;BME280;63021;52.836;6.376;2022-10-17T04:25:26;101636.78;;;13.69;78.70
55456;BME280;63021;52.836;6.376;2022-10-17T04:27:51;101638.50;;;13.71;78.28
55456;BME280;63021;52.836;6.376;2022-10-17T04:30:17;101641.69;;;13.74;78.21
55456;BME280;63021;52.836;6.376;2022-10-17T04:32:42;101638.88;;;13.76;78.60
55456;BME280;63021;52.836;6.376;2022-10-17T04:35:07;101636.03;;;13.77;78.74
55456;BME280;63021;52.836;6.376;2022-10-17T04:37:33;101640.25;;;13.80;79.03
55456;BME280;63021;52.836;6.376;2022-10-17T04:39:58;101631.09;;;13.82;79.20
55456;BME280;63021;52.836;6.376;2022-10-17T04:42:24;101640.50;;;13.86;79.30
55456;BME280;63021;52.836;6.376;2022-10-17T04:44:49;101641.34;;;13.87;79.32
55456;BME280;63021;52.836;6.376;2022-10-17T04:47:14;101627.50;;;13.92;79.88
55456;BME280;63021;52.836;6.376;2022-10-17T04:49:40;101629.06;;;13.94;79.77
55456;BME280;63021;52.836;6.376;2022-10-17T04:52:05;101622.56;;;13.97;79.71
55456;BME280;63021;52.836;6.376;2022-10-17T04:54:30;101626.94;;;13.98;79.91
55456;BME280;63021;52.836;6.376;2022-10-17T04:56:55;101624.94;;;14.00;79.41
55456;BME280;63021;52.836;6.376;2022-10-17T04:59:21;101628.28;;;14.02;79.43
55456;BME280;63021;52.836;6.376;2022-10-17T05:01:48;101621.78;;;14.04;79.94
55456;BME280;63021;52.836;6.376;2022-10-17T05:04:13;101619.13;;;14.04;80.07
55456;BME280;63021;52.836;6.376;2022-10-17T05:06:38;101623.19;;;14.09;80.34
55456;BME280;63021;52.836;6.376;2022-10-17T05:09:04;101632.91;;;14.10;80.19
55456;BME280;63021;52.836;6.376;2022-10-17T05:11:29;101629.63;;;14.16;80.10
55456;BME280;63021;52.836;6.376;2022-10-17T05:13:59;101623.97;;;14.19;80.42
55456;BME280;63021;52.836;6.376;2022-10-17T05:16:26;101623.50;;;14.24;80.32
55456;BME280;63021;52.836;6.376;2022-10-17T05:18:54;101607.31;;;14.25;81.06
55456;BME280;63021;52.836;6.376;2022-10-17T05:21:20;101602.31;;;14.30;80.49
55456;BME280;63021;52.836;6.376;2022-10-17T05:23:46;101606.53;;;14.33;80.72
55456;BME280;63021;52.836;6.376;2022-10-17T05:26:12;101613.41;;;14.35;80.98
55456;BME280;63021;52.836;6.376;2022-10-17T05:28:37;101623.13;;;14.36;80.65
55456;BME280;63021;52.836;6.376;2022-10-17T05:31:04;101621.00;;;14.40;80.65
55456;BME280;63021;52.836;6.376;2022-10-17T05:33:29;101628.88;;;14.42;80.43
55456;BME280;63021;52.836;6.376;2022-10-17T05:35:55;101627.19;;;14.41;80.86
55456;BME280;63021;52.836;6.376;2022-10-17T05:38:20;101633.91;;;14.45;80.62
55456;BME280;63021;52.836;6.376;2022-10-17T05:40:46;101632.94;;;14.46;80.75
55456;BME280;63021;52.836;6.376;2022-10-17T05:43:11;101635.59;;;14.46;80.84
55456;BME280;63021;52.836;6.376;2022-10-17T05:45:37;101622.88;;;14.48;80.84
55456;BME280;63021;52.836;6.376;2022-10-17T05:48:02;101650.38;;;14.50;80.74
55456;BME280;63021;52.836;6.376;2022-10-17T05:50:28;101644.88;;;14.51;80.83
55456;BME280;63021;52.836;6.376;2022-10-17T05:52:54;101638.38;;;14.54;81.30
55456;BME280;63021;52.836;6.376;2022-10-17T05:55:20;101635.38;;;14.57;81.25
55456;BME280;63021;52.836;6.376;2022-10-17T05:57:45;101646.50;;;14.62;81.14
55456;BME280;63021;52.836;6.376;2022-10-17T06:00:11;101640.97;;;14.64;81.41
55456;BME280;63021;52.836;6.376;2022-10-17T06:02:37;101648.75;;;14.67;81.94
55456;BME280;63021;52.836;6.376;2022-10-17T06:05:02;101651.09;;;14.70;81.82
55456;BME280;63021;52.836;6.376;2022-10-17T06:07:28;101651.63;;;14.73;81.20
55456;BME280;63021;52.836;6.376;2022-10-17T06:09:53;101656.66;;;14.77;81.41
55456;BME280;63021;52.836;6.376;2022-10-17T06:12:18;101649.34;;;14.79;81.49
55456;BME280;63021;52.836;6.376;2022-10-17T06:14:44;101641.81;;;14.82;81.41
55456;BME280;63021;52.836;6.376;2022-10-17T06:17:09;101646.03;;;14.85;81.62
55456;BME280;63021;52.836;6.376;2022-10-17T06:19:34;101646.84;;;14.85;81.39
55456;BME280;63021;52.836;6.376;2022-10-17T06:22:00;101651.06;;;14.88;81.52
55456;BME280;63021;52.836;6.376;2022-10-17T06:24:26;101667.00;;;14.89;81.51
55456;BME280;63021;52.836;6.376;2022-10-17T06:26:51;101671.22;;;14.92;81.69
55456;BME280;63021;52.836;6.376;2022-10-17T06:29:17;101669.22;;;14.94;81.90
55456;BME280;63021;52.836;6.376;2022-10-17T06:31:42;101667.06;;;14.98;81.79
55456;BME280;63021;52.836;6.376;2022-10-17T06:34:08;101672.97;;;15.01;81.75
55456;BME280;63021;52.836;6.376;2022-10-17T06:36:34;101674.47;;;15.04;81.58
55456;BME280;63021;52.836;6.376;2022-10-17T06:38:59;101682.06;;;15.09;81.66
55456;BME280;63021;52.836;6.376;2022-10-17T06:41:24;101676.41;;;15.12;81.39
55456;BME280;63021;52.836;6.376;2022-10-17T06:43:50;101669.72;;;15.16;81.53
55456;BME280;63021;52.836;6.376;2022-10-17T06:46:17;101673.91;;;15.18;81.82
55456;BME280;63021;52.836;6.376;2022-10-17T06:48:43;101673.47;;;15.23;82.00
55456;BME280;63021;52.836;6.376;2022-10-17T06:51:08;101682.88;;;15.27;81.82
55456;BME280;63021;52.836;6.376;2022-10-17T06:53:36;101681.69;;;15.30;81.71
55456;BME280;63021;52.836;6.376;2022-10-17T06:56:03;101681.38;;;15.33;81.72
55456;BME280;63021;52.836;6.376;2022-10-17T06:58:30;101686.28;;;15.37;82.02
55456;BME280;63021;52.836;6.376;2022-10-17T07:03:24;101688.19;;;15.45;81.58
55456;BME280;63021;52.836;6.376;2022-10-17T07:05:53;101690.53;;;15.48;81.79
55456;BME280;63021;52.836;6.376;2022-10-17T07:08:19;101689.38;;;15.51;81.53
55456;BME280;63021;52.836;6.376;2022-10-17T07:10:45;101690.75;;;15.55;81.55
55456;BME280;63021;52.836;6.376;2022-10-17T07:13:10;101698.47;;;15.58;81.78
55456;BME280;63021;52.836;6.376;2022-10-17T07:15:36;101700.84;;;15.61;81.07
55456;BME280;63021;52.836;6.376;2022-10-17T07:18:03;101704.22;;;15.63;81.11
55456;BME280;63021;52.836;6.376;2022-10-17T07:20:28;101716.63;;;15.64;81.00
55456;BME280;63021;52.836;6.376;2022-10-17T07:22:53;101708.13;;;15.69;81.52
55456;BME280;63021;52.836;6.376;2022-10-17T07:25:19;101709.47;;;15.73;81.22
55456;BME280;63021;52.836;6.376;2022-10-17T07:27:44;101714.53;;;15.76;81.24
55456;BME280;63021;52.836;6.376;2022-10-17T07:30:10;101721.44;;;15.79;81.35
55456;BME280;63021;52.836;6.376;2022-10-17T07:32:36;101735.22;;;15.84;80.88
55456;BME280;63021;52.836;6.376;2022-10-17T07:35:01;101737.59;;;15.87;81.25
55456;BME280;63021;52.836;6.376;2022-10-17T07:37:28;101740.66;;;15.92;81.29
55456;BME280;63021;52.836;6.376;2022-10-17T07:39:53;101740.31;;;15.95;81.37
55456;BME280;63021;52.836;6.376;2022-10-17T07:42:18;101747.91;;;16.00;81.33
55456;BME280;63021;52.836;6.376;2022-10-17T07:44:44;101743.06;;;16.03;81.25
55456;BME280;63021;52.836;6.376;2022-10-17T07:47:14;101744.22;;;16.09;80.60
55456;BME280;63021;52.836;6.376;2022-10-17T07:49:39;101755.66;;;16.11;80.59
55456;BME280;63021;52.836;6.376;2022-10-17T07:52:09;101770.47;;;16.15;80.77
55456;BME280;63021;52.836;6.376;2022-10-17T07:54:36;101766.63;;;16.18;80.67
55456;BME280;63021;52.836;6.376;2022-10-17T07:57:01;101770.50;;;16.23;80.30
55456;BME280;63021;52.836;6.376;2022-10-17T07:59:27;101768.31;;;16.27;80.64
55456;BME280;63021;52.836;6.376;2022-10-17T08:01:55;101757.09;;;16.32;80.56
55456;BME280;63021;52.836;6.376;2022-10-17T08:04:21;101759.28;;;16.36;80.28
55456;BME280;63021;52.836;6.376;2022-10-17T08:06:47;101755.25;;;16.40;80.70
55456;BME280;63021;52.836;6.376;2022-10-17T08:09:13;101764.69;;;16.44;80.71
55456;BME280;63021;52.836;6.376;2022-10-17T08:11:38;101760.50;;;16.50;80.49
55456;BME280;63021;52.836;6.376;2022-10-17T08:14:03;101766.56;;;16.52;80.16
55456;BME280;63021;52.836;6.376;2022-10-17T08:16:29;101770.59;;;16.56;80.18
55456;BME280;63021;52.836;6.376;2022-10-17T08:18:55;101766.91;;;16.57;80.18
55456;BME280;63021;52.836;6.376;2022-10-17T08:21:20;101762.06;;;16.61;80.01
55456;BME280;63021;52.836;6.376;2022-10-17T08:23:45;101769.78;;;16.64;80.16
55456;BME280;63021;52.836;6.376;2022-10-17T08:26:11;101768.78;;;16.65;79.65
55456;BME280;63021;52.836;6.376;2022-10-17T08:28:38;101758.72;;;16.67;79.59
55456;BME280;63021;52.836;6.376;2022-10-17T08:31:06;101756.69;;;16.69;79.84
55456;BME280;63021;52.836;6.376;2022-10-17T08:33:32;101760.22;;;16.70;79.91
55456;BME280;63021;52.836;6.376;2022-10-17T08:35:59;101766.09;;;16.73;79.17
55456;BME280;63021;52.836;6.376;2022-10-17T08:38:27;101760.38;;;16.76;79.26
55456;BME280;63021;52.836;6.376;2022-10-17T08:40:52;101754.88;;;16.78;79.68
55456;BME280;63021;52.836;6.376;2022-10-17T08:43:50;101745.44;;;16.82;79.27
55456;BME280;63021;52.836;6.376;2022-10-17T08:46:20;101792.03;;;16.83;79.24
55456;BME280;63021;52.836;6.376;2022-10-17T08:48:46;101809.69;;;16.85;79.42
55456;BME280;63021;52.836;6.376;2022-10-17T08:51:30;101814.75;;;16.88;79.52
55456;BME280;63021;52.836;6.376;2022-10-17T08:54:05;101836.28;;;16.88;78.69
55456;BME280;63021;52.836;6.376;2022-10-17T08:56:43;101825.34;;;16.90;79.31
55456;BME280;63021;52.836;6.376;2022-10-17T08:59:12;101865.53;;;16.91;79.61
55456;BME280;63021;52.836;6.376;2022-10-17T09:01:45;101878.97;;;16.91;78.91
55456;BME280;63021;52.836;6.376;2022-10-17T09:07:14;101896.63;;;16.94;79.10
55456;BME280;63021;52.836;6.376;2022-10-17T09:15:56;101919.16;;;16.93;78.89
55456;BME280;63021;52.836;6.376;2022-10-17T09:18:35;101931.78;;;16.92;78.79
55456;BME280;63021;52.836;6.376;2022-10-17T09:23:41;101933.97;;;16.97;79.17
55456;BME280;63021;52.836;6.376;2022-10-17T09:26:10;101940.16;;;16.97;78.98
55456;BME280;63021;52.836;6.376;2022-10-17T09:28:40;101945.38;;;16.99;78.99
55456;BME280;63021;52.836;6.376;2022-10-17T09:31:11;101940.00;;;16.99;78.96
55456;BME280;63021;52.836;6.376;2022-10-17T09:33:42;101949.78;;;17.00;79.19
55456;BME280;63021;52.836;6.376;2022-10-17T09:38:58;101940.16;;;16.97;79.43
55456;BME280;63021;52.836;6.376;2022-10-17T09:41:57;101937.31;;;16.99;79.01
55456;BME280;63021;52.836;6.376;2022-10-17T09:44:29;101935.63;;;16.98;79.48
55456;BME280;63021;52.836;6.376;2022-10-17T09:47:07;101932.09;;;16.97;79.85
55456;BME280;63021;52.836;6.376;2022-10-17T09:49:38;101920.50;;;16.97;79.67
55456;BME280;63021;52.836;6.376;2022-10-17T09:52:07;101913.44;;;16.96;79.63
55456;BME280;63021;52.836;6.376;2022-10-17T09:54:44;101917.13;;;16.95;79.63
55456;BME280;63021;52.836;6.376;2022-10-17T09:57:14;101920.16;;;16.92;80.52
55456;BME280;63021;52.836;6.376;2022-10-17T10:02:17;101902.19;;;16.92;80.53
55456;BME280;63021;52.836;6.376;2022-10-17T10:07:20;101921.84;;;16.93;80.71
55456;BME280;63021;52.836;6.376;2022-10-17T10:09:47;101918.16;;;16.94;80.78
55456;BME280;63021;52.836;6.376;2022-10-17T10:12:25;101903.50;;;16.96;80.67
55456;BME280;63021;52.836;6.376;2022-10-17T10:14:54;101900.66;;;16.98;80.80
55456;BME280;63021;52.836;6.376;2022-10-17T10:17:33;101886.03;;;17.01;80.26
55456;BME280;63021;52.836;6.376;2022-10-17T10:20:00;101893.28;;;17.00;80.85
55456;BME280;63021;52.836;6.376;2022-10-17T10:22:26;101912.59;;;17.04;80.58
55456;BME280;63021;52.836;6.376;2022-10-17T10:27:32;101943.91;;;17.05;80.44
55456;BME280;63021;52.836;6.376;2022-10-17T10:29:58;101964.25;;;17.07;80.34
55456;BME280;63021;52.836;6.376;2022-10-17T10:32:26;101972.50;;;17.06;80.41
55456;BME280;63021;52.836;6.376;2022-10-17T10:37:27;101963.44;;;17.07;80.88
55456;BME280;63021;52.836;6.376;2022-10-17T10:39:58;101953.81;;;17.04;80.39
55456;BME280;63021;52.836;6.376;2022-10-17T10:42:28;101928.75;;;17.04;80.98
55456;BME280;63021;52.836;6.376;2022-10-17T10:45:00;101933.31;;;17.03;80.98
55456;BME280;63021;52.836;6.376;2022-10-17T10:47:30;101919.69;;;17.05;80.91
55456;BME280;63021;52.836;6.376;2022-10-17T10:50:35;101903.53;;;17.05;81.03
55456;BME280;63021;52.836;6.376;2022-10-17T10:55:59;101913.31;;;17.06;80.88
55456;BME280;63021;52.836;6.376;2022-10-17T11:01:24;101923.75;;;17.09;81.27
55456;BME280;63021;52.836;6.376;2022-10-17T11:06:39;101958.53;;;17.10;80.76
55456;BME280;63021;52.836;6.376;2022-10-17T11:12:04;101981.59;;;17.13;81.30
55456;BME280;63021;52.836;6.376;2022-10-17T11:19:48;101988.84;;;17.12;81.70
55456;BME280;63021;52.836;6.376;2022-10-17T11:22:27;101996.75;;;17.14;81.18
55456;BME280;63021;52.836;6.376;2022-10-17T11:27:52;102013.06;;;17.12;81.70
55456;BME280;63021;52.836;6.376;2022-10-17T11:30:17;102015.03;;;17.10;81.57
55456;BME280;63021;52.836;6.376;2022-10-17T11:32:47;102023.81;;;17.12;81.82
55456;BME280;63021;52.836;6.376;2022-10-17T11:35:28;102027.50;;;17.11;81.76
55456;BME280;63021;52.836;6.376;2022-10-17T11:40:50;102027.50;;;17.11;81.84
55456;BME280;63021;52.836;6.376;2022-10-17T11:45:51;102031.88;;;17.12;82.08
55456;BME280;63021;52.836;6.376;2022-10-17T11:48:39;102035.25;;;17.14;82.09
55456;BME280;63021;52.836;6.376;2022-10-17T11:51:11;102023.50;;;17.16;82.03
55456;BME280;63021;52.836;6.376;2022-10-17T11:56:28;102024.03;;;17.27;82.47
55456;BME280;63021;52.836;6.376;2022-10-17T12:01:47;102028.63;;;17.43;82.73
55456;BME280;63021;52.836;6.376;2022-10-17T12:04:39;102036.03;;;17.49;82.62
55456;BME280;63021;52.836;6.376;2022-10-17T12:07:16;102032.03;;;17.54;82.92
55456;BME280;63021;52.836;6.376;2022-10-17T12:12:29;102040.28;;;17.60;82.64
55456;BME280;63021;52.836;6.376;2022-10-17T12:15:26;102042.81;;;17.62;82.07
55456;BME280;63021;52.836;6.376;2022-10-17T12:18:02;102051.06;;;17.60;81.92
55456;BME280;63021;52.836;6.376;2022-10-17T12:20:37;102038.78;;;17.58;82.37
55456;BME280;63021;52.836;6.376;2022-10-17T12:25:36;102049.50;;;17.49;82.07
55456;BME280;63021;52.836;6.376;2022-10-17T12:28:16;102055.91;;;17.48;81.84
55456;BME280;63021;52.836;6.376;2022-10-17T12:30:52;102048.84;;;17.47;81.64
55456;BME280;63021;52.836;6.376;2022-10-17T12:50:02;102046.22;;;17.29;81.96
55456;BME280;63021;52.836;6.376;2022-10-17T12:54:59;102060.34;;;17.23;81.97
55456;BME280;63021;52.836;6.376;2022-10-17T13:02:53;102079.28;;;17.13;81.94
55456;BME280;63021;52.836;6.376;2022-10-17T13:05:29;102089.16;;;17.05;81.64
55456;BME280;63021;52.836;6.376;2022-10-17T13:07:57;102103.25;;;16.99;81.58
55456;BME280;63021;52.836;6.376;2022-10-17T13:10:26;102106.44;;;16.94;81.43
55456;BME280;63021;52.836;6.376;2022-10-17T13:12:59;102092.75;;;16.87;81.46
55456;BME280;63021;52.836;6.376;2022-10-17T13:15:28;102108.03;;;16.87;81.41
55456;BME280;63021;52.836;6.376;2022-10-17T13:17:56;102115.06;;;16.79;81.40
55456;BME280;63021;52.836;6.376;2022-10-17T13:20:24;102106.59;;;16.74;81.60
55456;BME280;63021;52.836;6.376;2022-10-17T13:22:52;102107.06;;;16.70;81.32
55456;BME280;63021;52.836;6.376;2022-10-17T13:25:19;102118.97;;;16.67;81.54
55456;BME280;63021;52.836;6.376;2022-10-17T13:27:46;102109.69;;;16.61;81.07
55456;BME280;63021;52.836;6.376;2022-10-17T13:30:25;102121.75;;;16.57;81.20
55456;BME280;63021;52.836;6.376;2022-10-17T13:32:51;102131.13;;;16.53;80.87
55456;BME280;63021;52.836;6.376;2022-10-17T13:35:24;102151.25;;;16.49;80.95
55456;BME280;63021;52.836;6.376;2022-10-17T13:37:50;102137.59;;;16.42;80.97
55456;BME280;63021;52.836;6.376;2022-10-17T13:40:22;102145.56;;;16.34;81.02
55456;BME280;63021;52.836;6.376;2022-10-17T13:42:49;102144.19;;;16.30;80.96
55456;BME280;63021;52.836;6.376;2022-10-17T13:45:33;102141.97;;;16.25;80.80
55456;BME280;63021;52.836;6.376;2022-10-17T13:48:05;102154.31;;;16.18;80.67
55456;BME280;63021;52.836;6.376;2022-10-17T13:50:37;102145.84;;;16.13;80.69
55456;BME280;63021;52.836;6.376;2022-10-17T13:53:17;102166.81;;;16.09;81.27
55456;BME280;63021;52.836;6.376;2022-10-17T13:58:43;102166.34;;;15.96;80.88
55456;BME280;63021;52.836;6.376;2022-10-17T14:01:10;102165.31;;;15.97;80.72
55456;BME280;63021;52.836;6.376;2022-10-17T14:03:36;102174.53;;;15.94;81.37
55456;BME280;63021;52.836;6.376;2022-10-17T14:06:17;102182.72;;;15.93;81.28
55456;BME280;63021;52.836;6.376;2022-10-17T14:11:35;102178.94;;;15.86;81.85
55456;BME280;63021;52.836;6.376;2022-10-17T14:14:03;102177.13;;;15.86;81.40
55456;BME280;63021;52.836;6.376;2022-10-17T14:16:37;102180.66;;;15.87;81.80
55456;BME280;63021;52.836;6.376;2022-10-17T14:19:04;102183.34;;;15.87;81.75
55456;BME280;63021;52.836;6.376;2022-10-17T14:21:31;102177.81;;;15.88;81.26
55456;BME280;63021;52.836;6.376;2022-10-17T14:24:31;102176.81;;;15.89;81.33
55456;BME280;63021;52.836;6.376;2022-10-17T14:26:59;102179.66;;;15.88;81.00
55456;BME280;63021;52.836;6.376;2022-10-17T14:29:30;102174.28;;;15.88;81.12
55456;BME280;63021;52.836;6.376;2022-10-17T14:34:32;102186.72;;;15.89;81.01
55456;BME280;63021;52.836;6.376;2022-10-17T14:36:59;102191.09;;;15.90;81.38
55456;BME280;63021;52.836;6.376;2022-10-17T14:39:26;102198.16;;;15.91;81.31
55456;BME280;63021;52.836;6.376;2022-10-17T14:41:52;102206.22;;;15.91;80.87
55456;BME280;63021;52.836;6.376;2022-10-17T14:44:22;102203.38;;;15.92;81.10
55456;BME280;63021;52.836;6.376;2022-10-17T14:47:01;102202.41;;;15.93;81.04
55456;BME280;63021;52.836;6.376;2022-10-17T14:49:38;102195.16;;;15.94;80.62
55456;BME280;63021;52.836;6.376;2022-10-17T14:54:45;102188.81;;;15.95;80.72
55456;BME280;63021;52.836;6.376;2022-10-17T14:59:39;102177.09;;;15.96;80.88
55456;BME280;63021;52.836;6.376;2022-10-17T15:02:05;102185.00;;;15.98;81.39
55456;BME280;63021;52.836;6.376;2022-10-17T15:04:30;102183.13;;;15.98;81.19
55456;BME280;63021;52.836;6.376;2022-10-17T15:06:55;102179.63;;;15.98;81.50
55456;BME280;63021;52.836;6.376;2022-10-17T15:09:21;102188.34;;;16.00;81.38